createdAt,value
2022-08-12T00:02:03.303Z,2.00
2022-08-12T00:04:45.604Z,1.90
2022-08-12T00:07:31.157Z,1.73
2022-08-12T00:10:16.636Z,1.53
2022-08-12T00:13:02.215Z,1.73
2022-08-12T00:15:50.550Z,1.95
2022-08-12T00:18:36.623Z,1.70
2022-08-12T00:21:22.102Z,1.80
2022-08-12T00:24:08.597Z,1.97
2022-08-12T00:26:54.377Z,1.80
2022-08-12T00:29:39.751Z,1.90
2022-08-12T00:32:36.035Z,1.70
2022-08-12T00:35:26.758Z,1.80
2022-08-12T00:38:21.934Z,1.90
2022-08-12T00:41:07.532Z,1.70
2022-08-12T00:43:36.182Z,1.75
2022-08-12T00:46:21.482Z,1.80
2022-08-12T00:48:50.970Z,1.75
2022-08-12T00:51:18.961Z,1.60
2022-08-12T00:53:46.906Z,1.70
2022-08-12T00:56:14.851Z,1.50
2022-08-12T00:58:47.273Z,1.73
2022-08-12T01:01:15.367Z,1.73
2022-08-12T01:04:00.882Z,1.60
2022-08-12T01:06:50.928Z,1.60
2022-08-12T01:09:53.445Z,1.70
2022-08-12T01:12:21.410Z,1.60
2022-08-12T01:14:49.334Z,1.60
2022-08-12T01:17:17.313Z,1.77
2022-08-12T01:19:48.396Z,1.70
2022-08-12T01:22:29.239Z,1.55
2022-08-12T01:25:05.209Z,1.80
2022-08-12T01:27:34.246Z,1.50
2022-08-12T01:30:03.450Z,1.50
2022-08-12T01:32:37.591Z,1.60
2022-08-12T01:35:07.793Z,1.67
2022-08-12T01:37:37.770Z,1.92
2022-08-12T01:40:34.097Z,1.65
2022-08-12T01:43:06.804Z,1.50
2022-08-12T01:45:43.361Z,1.63
2022-08-12T01:48:16.183Z,1.58
2022-08-12T01:50:52.077Z,1.80
2022-08-12T01:53:20.641Z,1.60
2022-08-12T01:55:49.949Z,1.53
2022-08-12T01:58:26.653Z,1.58
2022-08-12T02:00:59.101Z,1.80
2022-08-12T02:04:13.316Z,1.77
2022-08-12T02:07:02.103Z,1.55
2022-08-12T02:09:54.663Z,1.65
2022-08-12T02:12:34.595Z,1.60
2022-08-12T02:15:06.148Z,1.60
2022-08-12T02:17:55.497Z,1.70
2022-08-12T02:20:35.155Z,1.60
2022-08-12T02:23:16.298Z,1.60
2022-08-12T02:25:45.863Z,1.63
2022-08-12T02:28:15.486Z,1.60
2022-08-12T02:30:45.053Z,1.50
2022-08-12T02:33:13.061Z,1.60
2022-08-12T02:35:41.047Z,1.60
2022-08-12T02:38:10.193Z,1.50
2022-08-12T02:40:39.221Z,1.65
2022-08-12T02:43:13.128Z,1.50
2022-08-12T02:45:45.262Z,1.60
2022-08-12T02:48:16.967Z,1.80
2022-08-12T02:50:48.029Z,1.77
2022-08-12T02:53:16.016Z,1.60
2022-08-12T02:55:46.834Z,1.50
2022-08-12T02:58:14.965Z,1.60
2022-08-12T03:00:44.954Z,1.50
2022-08-12T03:03:14.760Z,1.90
2022-08-12T03:05:46.262Z,1.70
2022-08-12T03:08:22.333Z,1.90
2022-08-12T03:11:03.201Z,2.07
2022-08-12T03:13:33.284Z,1.80
2022-08-12T03:16:02.573Z,1.67
2022-08-12T03:18:31.218Z,1.60
2022-08-12T03:21:00.138Z,1.50
2022-08-12T03:23:29.043Z,1.67
2022-08-12T03:25:59.289Z,1.83
2022-08-12T03:28:47.282Z,1.48
2022-08-12T03:31:16.711Z,1.90
2022-08-12T03:33:46.727Z,1.70
2022-08-12T03:36:30.986Z,1.45
2022-08-12T03:39:23.855Z,1.30
2022-08-12T03:42:22.913Z,1.40
2022-08-12T03:45:52.177Z,1.47
2022-08-12T03:48:39.685Z,1.58
2022-08-12T03:51:25.200Z,1.60
2022-08-12T03:54:11.516Z,1.83
2022-08-12T03:56:57.389Z,1.40
2022-08-12T03:59:42.906Z,1.52
2022-08-12T04:02:14.621Z,1.73
2022-08-12T04:04:45.506Z,1.70
2022-08-12T04:07:14.457Z,1.87
2022-08-12T04:09:44.042Z,1.60
2022-08-12T04:12:32.391Z,1.50
2022-08-12T04:15:00.580Z,1.60
2022-08-12T04:17:28.770Z,1.65
2022-08-12T04:19:58.713Z,1.50
2022-08-12T04:22:30.478Z,1.53
2022-08-12T04:25:00.953Z,1.60
2022-08-12T04:27:31.410Z,1.60
2022-08-12T04:30:32.913Z,1.60
2022-08-12T04:32:48.245Z,1.55
2022-08-12T04:35:20.705Z,1.50
2022-08-12T04:37:59.908Z,1.50
2022-08-12T04:40:29.719Z,1.80
2022-08-12T04:42:58.230Z,1.48
2022-08-12T04:45:26.256Z,1.67
2022-08-12T04:47:54.349Z,1.65
2022-08-12T04:50:34.913Z,1.70
2022-08-12T04:53:05.255Z,1.70
2022-08-12T04:55:33.400Z,1.60
2022-08-12T04:58:01.534Z,1.47
2022-08-12T05:00:29.565Z,1.50
2022-08-12T05:02:57.682Z,1.50
2022-08-12T05:05:27.071Z,1.40
2022-08-12T05:07:55.347Z,1.65
2022-08-12T05:10:33.560Z,1.35
2022-08-12T05:13:05.767Z,1.60
2022-08-12T05:15:36.058Z,1.67
2022-08-12T05:18:19.160Z,1.53
2022-08-12T05:20:49.308Z,1.93
2022-08-12T05:23:19.261Z,1.60
2022-08-12T05:25:49.014Z,1.40
2022-08-12T05:28:18.076Z,1.40
2022-08-12T05:30:46.257Z,1.50
2022-08-12T05:33:15.475Z,1.50
2022-08-12T05:35:45.249Z,1.60
2022-08-12T05:38:33.253Z,1.60
2022-08-12T05:41:01.507Z,1.90
2022-08-12T05:43:29.797Z,1.50
2022-08-12T05:45:59.897Z,1.52
2022-08-12T05:48:28.244Z,1.50
2022-08-12T05:50:56.626Z,1.60
2022-08-12T05:53:25.938Z,1.50
2022-08-12T05:55:54.763Z,1.70
2022-08-12T05:58:22.689Z,1.63
2022-08-12T06:00:50.608Z,1.60
2022-08-12T06:03:19.482Z,1.48
2022-08-12T06:05:55.216Z,1.80
2022-08-12T06:08:25.594Z,1.50
2022-08-12T06:10:53.714Z,4.30
2022-08-12T06:13:28.627Z,1.80
2022-08-12T06:16:09.949Z,1.67
2022-08-12T06:18:39.872Z,1.77
2022-08-12T06:21:08.399Z,1.55
2022-08-12T06:23:42.336Z,1.75
2022-08-12T06:26:12.600Z,1.80
2022-08-12T06:28:40.672Z,1.90
2022-08-12T06:31:26.706Z,1.60
2022-08-12T06:34:00.776Z,1.60
2022-08-12T06:36:43.299Z,1.80
2022-08-12T06:39:15.396Z,1.73
2022-08-12T06:42:28.535Z,1.63
2022-08-12T06:44:53.267Z,1.67
2022-08-12T06:47:21.989Z,1.80
2022-08-12T06:49:50.105Z,1.60
2022-08-12T06:52:21.623Z,1.70
2022-08-12T06:54:53.501Z,1.60
2022-08-12T06:58:06.179Z,1.60
2022-08-12T07:00:13.041Z,1.93
2022-08-12T07:02:41.381Z,1.50
2022-08-12T07:05:10.484Z,1.60
2022-08-12T07:07:38.876Z,1.70
2022-08-12T07:10:09.068Z,1.67
2022-08-12T07:12:37.277Z,1.70
2022-08-12T07:15:05.972Z,1.77
2022-08-12T07:17:37.286Z,1.60
2022-08-12T07:20:06.880Z,1.70
2022-08-12T07:22:34.902Z,1.50
2022-08-12T07:25:24.012Z,1.73
2022-08-12T07:27:55.674Z,1.53
2022-08-12T07:30:24.018Z,1.50
2022-08-12T07:32:52.282Z,1.40
2022-08-12T07:35:20.596Z,1.70
2022-08-12T07:37:50.490Z,1.70
2022-08-12T07:40:18.689Z,2.42
2022-08-12T07:42:46.857Z,1.83
2022-08-12T07:45:16.169Z,2.63
2022-08-12T07:47:44.777Z,1.70
2022-08-12T07:50:12.993Z,3.10
2022-08-12T07:52:42.720Z,1.70
2022-08-12T07:55:11.142Z,1.53
2022-08-12T07:57:49.955Z,1.60
2022-08-12T08:00:19.684Z,1.67
2022-08-12T08:02:49.300Z,1.83
2022-08-12T08:05:18.582Z,1.53
2022-08-12T08:07:46.578Z,1.63
2022-08-12T08:10:14.509Z,1.80
2022-08-12T08:12:58.647Z,1.80
2022-08-12T08:16:00.631Z,1.47
2022-08-12T08:18:26.579Z,1.60
2022-08-12T08:20:55.778Z,1.40
2022-08-12T08:23:43.754Z,1.67
2022-08-12T08:26:15.552Z,1.50
2022-08-12T08:28:43.777Z,2.20
2022-08-12T08:31:14.176Z,1.60
2022-08-12T08:34:09.652Z,1.50
2022-08-12T08:36:30.448Z,1.60
2022-08-12T08:38:58.888Z,1.40
2022-08-12T08:42:17.368Z,1.50
2022-08-12T08:44:33.470Z,1.53
2022-08-12T08:47:05.387Z,1.80
2022-08-12T08:49:34.321Z,1.73
2022-08-12T08:52:06.051Z,1.53
2022-08-12T08:54:34.352Z,1.60
2022-08-12T08:57:02.503Z,1.70
2022-08-12T08:59:30.612Z,1.50
2022-08-12T09:02:00.470Z,1.43
2022-08-12T09:05:12.752Z,1.50
2022-08-12T09:07:51.610Z,1.40
2022-08-12T09:10:09.178Z,1.50
2022-08-12T09:13:01.596Z,1.60
2022-08-12T09:15:35.401Z,1.40
2022-08-12T09:18:05.652Z,1.70
2022-08-12T09:20:38.834Z,2.00
2022-08-12T09:26:04.364Z,1.60
2022-08-12T09:28:33.359Z,1.60
2022-08-12T09:31:01.403Z,1.60
2022-08-12T09:34:28.118Z,1.60
2022-08-12T09:36:31.086Z,1.50
2022-08-12T09:40:01.828Z,1.60
2022-08-12T09:42:40.434Z,1.67
2022-08-12T09:45:23.353Z,1.70
2022-08-12T09:47:59.342Z,1.60
2022-08-12T09:50:28.197Z,1.40
2022-08-12T09:53:15.261Z,1.53
2022-08-12T09:56:07.378Z,1.50
2022-08-12T09:58:57.595Z,1.73
2022-08-12T10:01:23.365Z,1.70
2022-08-12T10:04:03.741Z,1.63
2022-08-12T10:06:36.756Z,1.47
2022-08-12T10:09:23.140Z,1.37
2022-08-12T10:12:14.282Z,1.63
2022-08-12T10:14:49.852Z,1.60
2022-08-12T10:17:21.521Z,3.33
2022-08-12T10:19:52.535Z,3.73
2022-08-12T10:22:40.429Z,3.07
2022-08-12T10:26:34.098Z,2.70
2022-08-12T10:28:35.531Z,3.20
2022-08-12T10:31:05.163Z,3.10
2022-08-12T10:33:54.100Z,2.93
2022-08-12T10:36:36.331Z,3.97
2022-08-12T10:40:02.149Z,3.37
2022-08-12T10:42:29.682Z,5.20
2022-08-12T10:45:00.990Z,3.37
2022-08-12T10:48:15.973Z,3.70
2022-08-12T10:50:28.303Z,3.20
2022-08-12T10:53:09.386Z,2.87
2022-08-12T10:55:37.580Z,4.03
2022-08-12T10:58:27.484Z,6.63
2022-08-12T11:01:50.330Z,2.80
2022-08-12T11:04:36.029Z,3.10
2022-08-12T11:07:07.183Z,2.50
2022-08-12T11:09:54.313Z,2.37
2022-08-12T11:12:56.183Z,2.87
2022-08-12T11:15:00.638Z,3.30
2022-08-12T11:17:54.531Z,4.87
2022-08-12T11:20:24.292Z,6.13
2022-08-12T11:22:58.992Z,2.53
2022-08-12T11:25:56.892Z,2.57
2022-08-12T11:28:15.958Z,2.30
2022-08-12T11:30:45.829Z,2.83
2022-08-12T11:33:24.139Z,2.30
2022-08-12T11:36:16.163Z,3.50
2022-08-12T11:38:50.300Z,2.40
2022-08-12T11:41:28.038Z,2.00
2022-08-12T11:44:00.039Z,2.43
2022-08-12T11:46:51.350Z,2.00
2022-08-12T11:49:32.116Z,2.30
2022-08-12T11:52:02.136Z,2.13
2022-08-12T11:54:30.979Z,2.30
2022-08-12T11:57:00.564Z,2.10
2022-08-12T12:02:20.996Z,2.00
2022-08-12T12:04:52.255Z,2.07
2022-08-12T12:08:35.986Z,2.00
2022-08-12T12:10:10.909Z,2.13
2022-08-12T12:12:41.571Z,2.13
2022-08-12T12:15:25.197Z,1.80
2022-08-12T12:18:07.676Z,1.80
2022-08-12T12:20:40.772Z,1.93
2022-08-12T12:23:09.928Z,2.30
2022-08-12T12:26:06.311Z,2.07
2022-08-12T12:28:39.795Z,1.80
2022-08-12T12:31:15.089Z,1.87
2022-08-12T12:33:58.789Z,1.70
2022-08-12T12:36:30.081Z,1.80
2022-08-12T12:39:00.222Z,1.90
2022-08-12T12:42:52.759Z,1.90
2022-08-12T12:44:25.506Z,2.20
2022-08-12T12:46:58.367Z,1.90
2022-08-12T12:49:27.716Z,1.80
2022-08-12T12:52:18.489Z,1.77
2022-08-12T12:54:52.691Z,2.33
2022-08-12T12:57:21.593Z,2.10
2022-08-12T13:00:17.671Z,1.77
2022-08-12T13:02:54.118Z,1.90
2022-08-12T13:05:28.022Z,1.53
2022-08-12T13:08:01.410Z,1.87
2022-08-12T13:10:30.652Z,1.85
2022-08-12T13:13:09.713Z,2.00
2022-08-12T13:15:50.796Z,1.70
2022-08-12T13:18:18.914Z,1.57
2022-08-12T13:20:59.855Z,1.80
2022-08-12T13:23:37.313Z,1.57
2022-08-12T13:26:07.625Z,1.77
2022-08-12T13:28:43.052Z,1.67
2022-08-12T13:31:13.931Z,1.63
2022-08-12T13:34:29.662Z,1.53
2022-08-12T13:36:31.702Z,1.60
2022-08-12T13:38:59.682Z,1.70
2022-08-12T13:41:36.842Z,1.50
2022-08-12T13:44:06.669Z,1.70
2022-08-12T13:46:40.803Z,1.40
2022-08-12T13:49:11.434Z,1.63
2022-08-12T13:51:54.207Z,1.93
2022-08-12T13:54:25.476Z,1.40
2022-08-12T13:56:53.706Z,1.70
2022-08-12T13:59:24.452Z,1.60
2022-08-12T14:01:56.900Z,1.50
2022-08-12T14:04:27.351Z,1.50
2022-08-12T14:06:58.222Z,1.70
2022-08-12T14:09:29.775Z,1.60
2022-08-12T14:11:58.711Z,1.70
2022-08-12T14:14:31.387Z,1.50
2022-08-12T14:17:05.706Z,1.50
2022-08-12T14:19:48.536Z,1.50
2022-08-12T14:22:26.127Z,1.60
2022-08-12T14:24:54.727Z,1.70
2022-08-12T14:28:02.853Z,1.60
2022-08-12T14:30:15.976Z,1.57
2022-08-12T14:32:52.164Z,1.60
2022-08-12T14:35:21.667Z,1.40
2022-08-12T14:37:58.936Z,1.30
2022-08-12T14:40:29.333Z,1.60
2022-08-12T14:42:58.167Z,1.50
2022-08-12T14:45:45.443Z,1.30
2022-08-12T14:48:14.911Z,1.63
2022-08-12T14:51:03.053Z,1.30
2022-08-12T14:59:55.697Z,1.63
2022-08-12T15:02:20.477Z,1.30
2022-08-12T15:04:50.978Z,1.30
2022-08-12T15:07:34.222Z,1.20
2022-08-12T15:10:09.278Z,1.50
2022-08-12T15:12:40.682Z,1.23
2022-08-12T15:15:10.522Z,1.20
2022-08-12T15:17:39.834Z,1.20
2022-08-12T15:20:31.364Z,1.47
2022-08-12T15:22:58.011Z,1.37
2022-08-12T15:25:27.572Z,1.20
2022-08-12T15:28:10.930Z,1.37
2022-08-12T15:30:47.602Z,1.20
2022-08-12T15:33:21.103Z,1.40
2022-08-12T15:35:53.754Z,1.40
2022-08-12T15:38:24.622Z,1.30
2022-08-12T15:40:55.062Z,1.30
2022-08-12T15:43:51.594Z,1.10
2022-08-12T15:46:14.987Z,1.17
2022-08-12T15:48:46.969Z,1.37
2022-08-12T15:51:59.714Z,1.33
2022-08-12T15:54:34.115Z,1.20
2022-08-12T15:57:08.418Z,1.20
2022-08-12T16:00:00.329Z,1.40
2022-08-12T16:02:29.515Z,1.17
2022-08-12T16:04:58.401Z,1.37
2022-08-12T16:07:29.801Z,1.13
2022-08-12T16:10:05.568Z,1.20
2022-08-12T16:12:41.917Z,1.20
2022-08-12T16:15:12.034Z,1.20
2022-08-12T16:18:19.788Z,1.30
2022-08-12T16:20:33.687Z,1.40
2022-08-12T16:23:04.043Z,1.20
2022-08-12T16:26:02.588Z,1.30
2022-08-12T16:28:22.643Z,1.00
2022-08-12T16:30:56.154Z,1.30
2022-08-12T16:33:24.784Z,1.10
2022-08-12T16:35:54.130Z,1.20
2022-08-12T16:38:28.219Z,1.20
2022-08-12T16:40:56.881Z,1.30
2022-08-12T16:43:26.945Z,1.03
2022-08-12T16:46:07.735Z,1.30
2022-08-12T16:48:45.025Z,1.20
2022-08-12T16:51:14.374Z,1.20
2022-08-12T16:53:44.263Z,1.00
2022-08-12T16:56:15.799Z,1.20
2022-08-12T16:58:47.852Z,1.40
2022-08-12T17:01:16.329Z,1.10
2022-08-12T17:03:52.508Z,1.20
2022-08-12T17:06:22.279Z,1.27
2022-08-12T17:09:08.396Z,1.20
2022-08-12T17:11:38.790Z,1.30
2022-08-12T17:14:08.297Z,1.00
2022-08-12T17:16:37.590Z,1.00
2022-08-12T17:19:09.141Z,1.13
2022-08-12T17:21:41.280Z,1.20
2022-08-12T17:24:21.500Z,1.27
2022-08-12T17:26:49.909Z,1.13
2022-08-12T17:29:32.352Z,1.27
2022-08-12T17:32:10.926Z,1.10
2022-08-12T17:34:56.426Z,1.20
2022-08-12T17:37:24.519Z,1.10
2022-08-12T17:40:12.628Z,1.23
2022-08-12T17:42:47.510Z,1.37
2022-08-12T17:45:19.619Z,1.43
2022-08-12T17:48:01.235Z,1.30
2022-08-12T17:50:32.241Z,1.10
2022-08-12T17:53:03.054Z,1.20
2022-08-12T17:55:43.456Z,1.13
2022-08-12T17:58:13.051Z,1.03
2022-08-12T18:00:45.423Z,1.33
2022-08-12T18:03:58.140Z,1.20
2022-08-12T18:06:08.752Z,1.40
2022-08-12T18:08:43.448Z,1.17
2022-08-12T18:12:06.471Z,1.40
2022-08-12T18:14:28.655Z,7.80
2022-08-12T18:17:00.418Z,2.10
2022-08-12T18:19:29.479Z,1.20
2022-08-12T18:22:17.452Z,1.20
2022-08-12T18:24:45.904Z,1.30
2022-08-12T18:27:29.865Z,1.30
2022-08-12T18:30:04.512Z,1.30
2022-08-12T18:32:43.847Z,1.07
2022-08-12T18:35:22.821Z,1.73
2022-08-12T18:38:10.144Z,1.63
2022-08-12T18:40:56.535Z,1.30
2022-08-12T18:43:24.595Z,1.67
2022-08-12T18:45:56.735Z,1.60
2022-08-12T18:48:31.800Z,2.10
2022-08-12T18:51:04.134Z,2.20
2022-08-12T18:54:06.649Z,2.00
2022-08-12T18:56:33.772Z,2.20
2022-08-12T18:59:02.349Z,1.93
2022-08-12T19:02:19.598Z,2.10
2022-08-12T19:04:20.197Z,2.20
2022-08-12T19:06:48.278Z,2.15
2022-08-12T19:09:16.470Z,2.00
2022-08-12T19:12:13.519Z,2.20
2022-08-12T19:14:51.393Z,2.30
2022-08-12T19:17:47.539Z,2.80
2022-08-12T19:20:21.927Z,3.00
2022-08-12T19:22:59.877Z,2.42
2022-08-12T19:26:01.710Z,3.30
2022-08-12T19:28:30.005Z,2.87
2022-08-12T19:31:20.301Z,2.88
2022-08-12T19:34:21.462Z,3.20
2022-08-12T19:36:38.456Z,3.20
2022-08-12T19:39:15.187Z,2.97
2022-08-12T19:41:55.911Z,2.83
2022-08-12T19:44:29.767Z,2.30
2022-08-12T19:47:00.329Z,2.88
2022-08-12T19:49:29.581Z,2.60
2022-08-12T19:51:59.145Z,2.60
2022-08-12T19:54:30.307Z,2.60
2022-08-12T19:56:59.634Z,2.88
2022-08-12T19:59:43.011Z,2.72
2022-08-12T20:02:41.429Z,2.72
2022-08-12T20:06:06.792Z,3.17
2022-08-12T20:07:59.663Z,2.60
2022-08-12T20:10:35.568Z,2.60
2022-08-12T20:13:18.646Z,2.70
2022-08-12T20:15:59.536Z,3.10
2022-08-12T20:18:44.173Z,2.95
2022-08-12T20:21:24.337Z,2.50
2022-08-12T20:24:00.839Z,2.97
2022-08-12T20:26:29.449Z,2.97
2022-08-12T20:29:00.019Z,3.00
2022-08-12T20:31:31.487Z,2.90
2022-08-12T20:33:59.752Z,2.60
2022-08-12T20:36:40.881Z,2.90
2022-08-12T20:39:37.169Z,3.00
2022-08-12T20:42:07.225Z,2.80
2022-08-12T20:44:36.219Z,3.00
2022-08-12T20:47:18.235Z,3.00
2022-08-12T20:49:54.772Z,2.90
2022-08-12T20:52:25.234Z,2.97
2022-08-12T20:54:55.794Z,2.70
2022-08-12T20:57:24.351Z,2.67
2022-08-12T20:59:52.861Z,2.90
2022-08-12T21:02:24.463Z,2.80
2022-08-12T21:05:19.504Z,2.90
2022-08-12T21:07:52.379Z,2.72
2022-08-12T21:10:26.726Z,3.07
2022-08-12T21:12:55.602Z,3.00
2022-08-12T21:15:53.340Z,2.92
2022-08-12T21:18:28.344Z,2.78
2022-08-12T21:20:58.987Z,2.95
2022-08-12T21:23:31.017Z,3.00
2022-08-12T21:26:11.387Z,2.75
2022-08-12T21:28:58.436Z,2.90
2022-08-12T21:32:36.233Z,2.72
2022-08-12T21:34:18.849Z,2.30
2022-08-12T21:36:49.580Z,2.53
2022-08-12T21:39:21.866Z,2.55
2022-08-12T21:41:53.645Z,2.50
2022-08-12T21:44:24.771Z,2.72
2022-08-12T21:47:20.150Z,2.90
2022-08-12T21:49:55.103Z,2.53
2022-08-12T21:52:33.909Z,2.70
2022-08-12T21:55:02.590Z,2.50
2022-08-12T21:57:36.436Z,2.58
2022-08-12T22:00:21.494Z,2.40
2022-08-12T22:03:07.774Z,2.30
2022-08-12T22:05:53.757Z,2.27
2022-08-12T22:08:26.181Z,2.60
2022-08-12T22:10:56.514Z,2.67
2022-08-12T22:14:08.512Z,2.47
2022-08-12T22:16:14.726Z,2.47
2022-08-12T22:18:50.449Z,2.65
2022-08-12T22:21:24.680Z,2.70
2022-08-12T22:24:05.074Z,2.45
2022-08-12T22:26:37.235Z,2.22
2022-08-12T22:29:26.802Z,2.40
2022-08-12T22:31:55.656Z,2.60
2022-08-12T22:34:29.263Z,2.30
2022-08-12T22:36:57.834Z,2.72
2022-08-12T22:39:26.454Z,2.40
2022-08-12T22:42:12.168Z,2.33
2022-08-12T22:45:16.250Z,2.45
2022-08-12T22:47:54.840Z,2.40
2022-08-12T22:50:27.131Z,2.67
2022-08-12T22:53:14.701Z,2.40
2022-08-12T22:56:00.474Z,2.50
2022-08-12T22:58:33.318Z,2.40
2022-08-12T23:01:03.499Z,2.20
2022-08-12T23:03:49.580Z,2.10
2022-08-12T23:06:19.906Z,2.20
2022-08-12T23:08:48.368Z,2.30
2022-08-12T23:11:17.143Z,2.47
2022-08-12T23:13:55.395Z,2.20
2022-08-12T23:16:30.818Z,2.60
2022-08-12T23:19:09.854Z,2.30
2022-08-12T23:22:05.167Z,2.13
2022-08-12T23:24:38.419Z,2.10
2022-08-12T23:27:24.946Z,2.20
2022-08-12T23:30:18.774Z,2.17
2022-08-12T23:32:59.610Z,2.28
2022-08-12T23:35:45.670Z,1.97
2022-08-12T23:38:30.287Z,2.10
2022-08-12T23:41:01.714Z,2.30
2022-08-12T23:43:39.112Z,1.97
2022-08-12T23:46:09.583Z,2.03
2022-08-12T23:48:38.956Z,1.80
2022-08-12T23:51:22.635Z,2.10
2022-08-12T23:53:54.921Z,2.20
2022-08-12T23:56:23.723Z,2.23
2022-08-12T23:58:52.466Z,1.87
